Jenks, OK (74037)

1:33 AM CDT on August 27, 2016 (GMT -0500)
Fox Run | | Change Station

Elev 692 ft 36.00 °N, 95.97 °W | Updated 10 seconds ago

Clear
Clear
73.9 °F
Feels Like 71 °F
N
0.0
Wind Variable Wind from South
Gusts 0.0 mph

Today
High -- | Low -- °F
--% Chance of Precip.
Yesterday
High -- | Low -- °F
Precip. -- in
Pressure 30.03 in
Visibility 10.0 miles
Clouds Clear
Heat Index 71 °F
Dew Point 72 °F
Humidity 94%
Rainfall 0.00 in
Snow Depth Not available.
6:52 AM 7:57 PM
Waning Crescent, 27% visible
METAR KRVS 270553Z AUTO 17003KT 10SM CLR 23/23 A3002 RMK AO2 SLP167 T02330228 10289 20228 403220217 51002
Pressure 30.03 in
Visibility 10.0 miles
Clouds Clear
Heat Index 71 °F
Dew Point 72 °F
Humidity 94%
Rainfall 0.00 in
Snow Depth Not available.
6:52 AM 7:57 PM
Waning Crescent, 27% visible
METAR KRVS 270553Z AUTO 17003KT 10SM CLR 23/23 A3002 RMK AO2 SLP167 T02330228 10289 20228 403220217 51002

10-Day Weather Forecast

Almanac

Astronomy

Aug. 27, 2016 Rise Set
Actual Time
Civil Twilight
Nautical Twilight
Astronomical Twilight
Moon
Length of Visible Light
Length of Day
Tomorrow will be .
, % of the Moon is Illuminated

Today's Extremes

State Highs State Lows

Community

WunderPhotos

Upload Photos

1,935,303 photos uploaded!

WunderBlog® & News

Nearby

Air Quality

  Air Quality AQ Index Pollutant
Not available.

Snow Depth

Station Depth Elevation

Earthquake Activity

City Distance Mag. Time & Date
Minimum magnitude displayed is 2.5.

Coastal Water Temperatures

Place Temperature

Stations

Nearby Weather Stations

Station Location Temp. Windchill Dew Point Humidity Wind Precip. Elev Updated Type
                   

Watches & Warnings

There are currently no watches in effect.